LVCUE SADF-SBFI
Flight info
| Callsign | LVCUE |
|---|---|
| Flight time | 1h 32m |
| Altitude | 41000 |
| Route | EZE19 DCT LANDA UN785 FOZ |
| Aircraft | LJ35/M-SGHRWXY/SB1 |
Departure
| Time | 2026-04-21 21:51 |
|---|---|
| Airport | San Fernando Airport (SADF) |
Arrival
| Time | 2026-04-21 23:23 |
|---|---|
| Airport | Cataratas International Airport (SBFI) |
| Time | Latitude | Longitude | Altitude | Speed | Heading |
|---|---|---|---|---|---|
| 2026-04-21 21:33 | -34.45388 | -58.58051 | 21 ft | 0 kts | 333° |
| 2026-04-21 21:47 | -34.45384 | -58.58053 | 21 ft | 5 kts | 333° |
| 2026-04-21 21:47 | -34.45395 | -58.58127 | 22 ft | 13 kts | 242° |
| 2026-04-21 21:48 | -34.45440 | -58.58233 | 21 ft | 15 kts | 243° |
| 2026-04-21 21:48 | -34.45493 | -58.58355 | 23 ft | 18 kts | 243° |
| 2026-04-21 21:48 | -34.45549 | -58.58485 | 21 ft | 18 kts | 243° |
| 2026-04-21 21:48 | -34.45610 | -58.58626 | 21 ft | 20 kts | 244° |
| 2026-04-21 21:49 | -34.45675 | -58.58778 | 21 ft | 22 kts | 242° |
| 2026-04-21 21:49 | -34.45747 | -58.58947 | 21 ft | 23 kts | 242° |
| 2026-04-21 21:49 | -34.45825 | -58.59130 | 23 ft | 25 kts | 242° |
| 2026-04-21 21:49 | -34.45909 | -58.59325 | 21 ft | 27 kts | 243° |
| 2026-04-21 21:50 | -34.45994 | -58.59520 | 21 ft | 24 kts | 242° |
| 2026-04-21 21:50 | -34.45999 | -58.59684 | 21 ft | 19 kts | 324° |
| 2026-04-21 21:50 | -34.45945 | -58.59663 | 21 ft | 0 kts | 45° |
| 2026-04-21 21:50 | -34.45944 | -58.59663 | 21 ft | 3 kts | 45° |
| 2026-04-21 21:51 | -34.45671 | -58.59341 | 22 ft | 112 kts | 44° |
| 2026-04-21 21:51 | -34.44908 | -58.58433 | 370 ft | 184 kts | 45° |
| 2026-04-21 21:51 | -34.43968 | -58.57262 | 1427 ft | 193 kts | 45° |
| 2026-04-21 21:51 | -34.43067 | -58.56114 | 2398 ft | 189 kts | 44° |
| 2026-04-21 21:52 | -34.42116 | -58.54863 | 2497 ft | 211 kts | 45° |
| 2026-04-21 21:52 | -34.41090 | -58.53492 | 2484 ft | 227 kts | 45° |
| 2026-04-21 21:52 | -34.39996 | -58.52040 | 2489 ft | 239 kts | 45° |
| 2026-04-21 21:52 | -34.38848 | -58.50518 | 2493 ft | 248 kts | 45° |
| 2026-04-21 21:53 | -34.37682 | -58.48974 | 2490 ft | 255 kts | 45° |
| 2026-04-21 21:53 | -34.36473 | -58.47374 | 2488 ft | 260 kts | 46° |
| 2026-04-21 21:53 | -34.35226 | -58.45758 | 2486 ft | 275 kts | 43° |
| 2026-04-21 21:53 | -34.33437 | -58.44431 | 2848 ft | 323 kts | 16° |
| 2026-04-21 21:54 | -34.31225 | -58.44135 | 4501 ft | 318 kts | 356° |
| 2026-04-21 21:54 | -34.29188 | -58.44627 | 6879 ft | 286 kts | 344° |
| 2026-04-21 21:54 | -34.27341 | -58.45241 | 9109 ft | 265 kts | 340° |
| 2026-04-21 21:54 | -34.25619 | -58.45821 | 11124 ft | 248 kts | 340° |
| 2026-04-21 21:55 | -34.24003 | -58.46346 | 13037 ft | 232 kts | 339° |
| 2026-04-21 21:55 | -34.22496 | -58.46855 | 14791 ft | 218 kts | 337° |
| 2026-04-21 21:55 | -34.21082 | -58.47340 | 16384 ft | 206 kts | 336° |
| 2026-04-21 21:55 | -34.19753 | -58.47791 | 17873 ft | 195 kts | 335° |
| 2026-04-21 21:56 | -34.18475 | -58.48225 | 19126 ft | 186 kts | 334° |
| 2026-04-21 21:56 | -34.17252 | -58.48638 | 20258 ft | 179 kts | 333° |
| 2026-04-21 21:56 | -34.16077 | -58.49036 | 21330 ft | 172 kts | 332° |
| 2026-04-21 21:56 | -34.14942 | -58.49419 | 22313 ft | 169 kts | 331° |
| 2026-04-21 21:57 | -34.13796 | -58.49813 | 23112 ft | 173 kts | 331° |
| 2026-04-21 21:57 | -34.12629 | -58.50205 | 23884 ft | 174 kts | 331° |
| 2026-04-21 21:57 | -34.11459 | -58.50598 | 24552 ft | 176 kts | 330° |
| 2026-04-21 21:57 | -34.10276 | -58.50994 | 25205 ft | 177 kts | 330° |
| 2026-04-21 21:58 | -34.09081 | -58.51397 | 25845 ft | 179 kts | 330° |
| 2026-04-21 21:58 | -34.07885 | -58.51800 | 26475 ft | 181 kts | 330° |
| 2026-04-21 21:58 | -34.06662 | -58.52210 | 27097 ft | 183 kts | 329° |
| 2026-04-21 21:58 | -34.05429 | -58.52624 | 27717 ft | 185 kts | 329° |
| 2026-04-21 21:59 | -34.04181 | -58.53043 | 28324 ft | 187 kts | 329° |
| 2026-04-21 21:59 | -34.02917 | -58.53468 | 28918 ft | 189 kts | 329° |
| 2026-04-21 21:59 | -34.01640 | -58.53896 | 29507 ft | 192 kts | 329° |
| 2026-04-21 21:59 | -34.00350 | -58.54328 | 30082 ft | 194 kts | 329° |
| 2026-04-21 22:00 | -33.99484 | -58.54619 | 30388 ft | 195 kts | 329° |
| 2026-04-21 22:00 | -33.97744 | -58.55202 | 31019 ft | 197 kts | 328° |
| 2026-04-21 22:00 | -33.96416 | -58.55644 | 31488 ft | 198 kts | 327° |
| 2026-04-21 22:00 | -33.95103 | -58.56132 | 31937 ft | 196 kts | 323° |
| 2026-04-21 22:01 | -33.93718 | -58.56493 | 32395 ft | 217 kts | 340° |
| 2026-04-21 22:01 | -33.92153 | -58.56399 | 32820 ft | 230 kts | 347° |
| 2026-04-21 22:01 | -33.90539 | -58.56138 | 33246 ft | 239 kts | 352° |
| 2026-04-21 22:01 | -33.89446 | -58.55896 | 33517 ft | 239 kts | 349° |
| 2026-04-21 22:02 | -33.87805 | -58.55631 | 33928 ft | 237 kts | 346° |
| 2026-04-21 22:02 | -33.86167 | -58.55459 | 34286 ft | 233 kts | 342° |
| 2026-04-21 22:02 | -33.84545 | -58.55391 | 34642 ft | 235 kts | 343° |
| 2026-04-21 22:02 | -33.82892 | -58.55229 | 34997 ft | 242 kts | 347° |
| 2026-04-21 22:03 | -33.81213 | -58.54990 | 35334 ft | 244 kts | 347° |
| 2026-04-21 22:03 | -33.79522 | -58.54759 | 35684 ft | 244 kts | 346° |
| 2026-04-21 22:03 | -33.77826 | -58.54546 | 36010 ft | 245 kts | 346° |
| 2026-04-21 22:03 | -33.76120 | -58.54332 | 36344 ft | 247 kts | 346° |
| 2026-04-21 22:04 | -33.74408 | -58.54114 | 36677 ft | 248 kts | 346° |
| 2026-04-21 22:04 | -33.72683 | -58.53894 | 36999 ft | 250 kts | 346° |
| 2026-04-21 22:04 | -33.70948 | -58.53673 | 37316 ft | 251 kts | 346° |
| 2026-04-21 22:04 | -33.69225 | -58.53455 | 37623 ft | 253 kts | 346° |
| 2026-04-21 22:05 | -33.67473 | -58.53232 | 37931 ft | 254 kts | 346° |
| 2026-04-21 22:05 | -33.65713 | -58.53009 | 38245 ft | 255 kts | 346° |
| 2026-04-21 22:05 | -33.63940 | -58.52782 | 38548 ft | 256 kts | 346° |
| 2026-04-21 22:05 | -33.62168 | -58.52558 | 38815 ft | 257 kts | 346° |
| 2026-04-21 22:06 | -33.60388 | -58.52332 | 39057 ft | 258 kts | 346° |
| 2026-04-21 22:06 | -33.58599 | -58.52104 | 39305 ft | 258 kts | 346° |
| 2026-04-21 22:06 | -33.56814 | -58.51877 | 39553 ft | 258 kts | 346° |
| 2026-04-21 22:06 | -33.55030 | -58.51651 | 39801 ft | 257 kts | 346° |
| 2026-04-21 22:07 | -33.53248 | -58.51425 | 40050 ft | 257 kts | 346° |
| 2026-04-21 22:07 | -33.51470 | -58.51200 | 40302 ft | 255 kts | 347° |
| 2026-04-21 22:07 | -33.49734 | -58.50979 | 40546 ft | 253 kts | 346° |
| 2026-04-21 22:07 | -33.47985 | -58.50757 | 40793 ft | 250 kts | 346° |
| 2026-04-21 22:08 | -33.46253 | -58.50539 | 40988 ft | 251 kts | 346° |
| 2026-04-21 22:08 | -33.44490 | -58.50328 | 40994 ft | 259 kts | 347° |
| 2026-04-21 22:08 | -33.42661 | -58.50101 | 41004 ft | 268 kts | 348° |
| 2026-04-21 22:08 | -33.40777 | -58.49859 | 41006 ft | 278 kts | 348° |
| 2026-04-21 22:09 | -33.38818 | -58.49611 | 41013 ft | 287 kts | 349° |
| 2026-04-21 22:09 | -33.36814 | -58.49360 | 41017 ft | 298 kts | 349° |
| 2026-04-21 22:09 | -33.34715 | -58.49095 | 41020 ft | 309 kts | 350° |
| 2026-04-21 22:09 | -33.32530 | -58.48819 | 41023 ft | 320 kts | 351° |
| 2026-04-21 22:10 | -33.30274 | -58.48534 | 41024 ft | 332 kts | 351° |
| 2026-04-21 22:10 | -33.27939 | -58.48239 | 41027 ft | 343 kts | 352° |
| 2026-04-21 22:10 | -33.25515 | -58.47933 | 41030 ft | 354 kts | 352° |
| 2026-04-21 22:10 | -33.23022 | -58.47619 | 41029 ft | 365 kts | 353° |
| 2026-04-21 22:11 | -33.20449 | -58.47295 | 41029 ft | 376 kts | 353° |
| 2026-04-21 22:11 | -33.15110 | -58.46621 | 41031 ft | 395 kts | 354° |
| 2026-04-21 22:12 | -33.09515 | -58.45919 | 41031 ft | 413 kts | 354° |
| 2026-04-21 22:12 | -33.03724 | -58.45189 | 41029 ft | 428 kts | 355° |
| 2026-04-21 22:13 | -32.97705 | -58.44435 | 41031 ft | 440 kts | 355° |
| 2026-04-21 22:13 | -32.91552 | -58.43664 | 41028 ft | 448 kts | 355° |
| 2026-04-21 22:14 | -32.85314 | -58.42884 | 41024 ft | 451 kts | 355° |
| 2026-04-21 22:14 | -32.79088 | -58.42108 | 41026 ft | 452 kts | 355° |
| 2026-04-21 22:15 | -32.72839 | -58.41167 | 41031 ft | 463 kts | 4° |
| 2026-04-21 22:15 | -32.66555 | -58.39514 | 41009 ft | 460 kts | 2° |
| 2026-04-21 22:16 | -32.60286 | -58.37590 | 41025 ft | 469 kts | 7° |
| 2026-04-21 22:16 | -32.54033 | -58.35551 | 41001 ft | 464 kts | 4° |
| 2026-04-21 22:17 | -32.47760 | -58.33645 | 41001 ft | 466 kts | 6° |
| 2026-04-21 22:17 | -32.41508 | -58.31632 | 40993 ft | 464 kts | 5° |
| 2026-04-21 22:18 | -32.35296 | -58.29724 | 40996 ft | 465 kts | 6° |
| 2026-04-21 22:18 | -32.29037 | -58.27743 | 40991 ft | 465 kts | 5° |
| 2026-04-21 22:19 | -32.22781 | -58.25804 | 41002 ft | 465 kts | 6° |
| 2026-04-21 22:19 | -32.16526 | -58.23842 | 41003 ft | 465 kts | 6° |
| 2026-04-21 22:20 | -32.10307 | -58.21913 | 40999 ft | 464 kts | 5° |
| 2026-04-21 22:20 | -32.04054 | -58.19963 | 41010 ft | 465 kts | 6° |
| 2026-04-21 22:21 | -31.97797 | -58.18022 | 41017 ft | 464 kts | 6° |
| 2026-04-21 22:21 | -31.91547 | -58.16082 | 41017 ft | 464 kts | 6° |
| 2026-04-21 22:22 | -31.85286 | -58.14144 | 41015 ft | 464 kts | 6° |
| 2026-04-21 22:22 | -31.79069 | -58.12220 | 41021 ft | 465 kts | 6° |
| 2026-04-21 22:23 | -31.72810 | -58.10288 | 41016 ft | 464 kts | 5° |
| 2026-04-21 22:23 | -31.66552 | -58.08357 | 41014 ft | 465 kts | 5° |
| 2026-04-21 22:24 | -31.60298 | -58.06431 | 41017 ft | 464 kts | 5° |
| 2026-04-21 22:24 | -31.54049 | -58.04509 | 41012 ft | 464 kts | 5° |
| 2026-04-21 22:25 | -31.47844 | -58.02603 | 41014 ft | 464 kts | 5° |
| 2026-04-21 22:25 | -31.41601 | -58.00689 | 41013 ft | 463 kts | 5° |
| 2026-04-21 22:26 | -31.35358 | -57.98776 | 41013 ft | 463 kts | 6° |
| 2026-04-21 22:26 | -31.29123 | -57.96869 | 41011 ft | 463 kts | 6° |
| 2026-04-21 22:27 | -31.22892 | -57.94965 | 41010 ft | 462 kts | 6° |
| 2026-04-21 22:27 | -31.16658 | -57.93064 | 41009 ft | 462 kts | 6° |
| 2026-04-21 22:28 | -31.10425 | -57.91166 | 41010 ft | 462 kts | 6° |
| 2026-04-21 22:28 | -31.04250 | -57.89287 | 41006 ft | 461 kts | 6° |
| 2026-04-21 22:29 | -30.98017 | -57.87394 | 41004 ft | 461 kts | 6° |
| 2026-04-21 22:29 | -30.91807 | -57.85512 | 41002 ft | 461 kts | 6° |
| 2026-04-21 22:30 | -30.85593 | -57.83626 | 41005 ft | 461 kts | 6° |
| 2026-04-21 22:30 | -30.79372 | -57.81744 | 41002 ft | 461 kts | 6° |
| 2026-04-21 22:31 | -30.73199 | -57.79903 | 41006 ft | 461 kts | 5° |
| 2026-04-21 22:31 | -30.66993 | -57.77918 | 41006 ft | 465 kts | 8° |
| 2026-04-21 22:32 | -30.60799 | -57.75736 | 40996 ft | 464 kts | 7° |
| 2026-04-21 22:32 | -30.54619 | -57.73583 | 40997 ft | 464 kts | 7° |
| 2026-04-21 22:33 | -30.48442 | -57.71416 | 40999 ft | 464 kts | 7° |
| 2026-04-21 22:33 | -30.42296 | -57.69278 | 41001 ft | 463 kts | 7° |
| 2026-04-21 22:34 | -30.36119 | -57.67123 | 40998 ft | 463 kts | 7° |
| 2026-04-21 22:34 | -30.29947 | -57.64975 | 40995 ft | 462 kts | 7° |
| 2026-04-21 22:35 | -30.23907 | -57.62193 | 40999 ft | 476 kts | 19° |
| 2026-04-21 22:35 | -30.18030 | -57.58655 | 40999 ft | 475 kts | 18° |
| 2026-04-21 22:36 | -30.09216 | -57.53390 | 40997 ft | 476 kts | 19° |
| 2026-04-21 22:36 | -30.03328 | -57.49888 | 40996 ft | 475 kts | 18° |
| 2026-04-21 22:37 | -29.97454 | -57.46379 | 40994 ft | 475 kts | 19° |
| 2026-04-21 22:37 | -29.91607 | -57.42903 | 40995 ft | 475 kts | 18° |
| 2026-04-21 22:38 | -29.85724 | -57.39406 | 40990 ft | 475 kts | 19° |
| 2026-04-21 22:38 | -29.79842 | -57.35916 | 40987 ft | 475 kts | 19° |
| 2026-04-21 22:39 | -29.73957 | -57.32427 | 40987 ft | 475 kts | 19° |
| 2026-04-21 22:39 | -29.68118 | -57.28972 | 40984 ft | 475 kts | 19° |
| 2026-04-21 22:40 | -29.62235 | -57.25494 | 40983 ft | 475 kts | 19° |
| 2026-04-21 22:40 | -29.56347 | -57.22019 | 40987 ft | 475 kts | 19° |
| 2026-04-21 22:41 | -29.50474 | -57.18555 | 40988 ft | 475 kts | 18° |
| 2026-04-21 22:41 | -29.44591 | -57.15093 | 40986 ft | 475 kts | 18° |
| 2026-04-21 22:42 | -29.38718 | -57.11638 | 40989 ft | 474 kts | 18° |
| 2026-04-21 22:42 | -29.32876 | -57.08210 | 40992 ft | 474 kts | 18° |
| 2026-04-21 22:43 | -29.27012 | -57.04764 | 40989 ft | 473 kts | 18° |
| 2026-04-21 22:43 | -29.21142 | -57.01336 | 40988 ft | 473 kts | 18° |
| 2026-04-21 22:44 | -29.15294 | -56.97908 | 40991 ft | 472 kts | 18° |
| 2026-04-21 22:44 | -29.09479 | -56.94514 | 40993 ft | 471 kts | 18° |
| 2026-04-21 22:45 | -29.03627 | -56.91117 | 40992 ft | 470 kts | 18° |
| 2026-04-21 22:45 | -28.97790 | -56.87726 | 40989 ft | 470 kts | 18° |
| 2026-04-21 22:46 | -28.91997 | -56.84368 | 40990 ft | 469 kts | 18° |
| 2026-04-21 22:46 | -28.86178 | -56.80999 | 40990 ft | 469 kts | 18° |
| 2026-04-21 22:47 | -28.80359 | -56.77634 | 40993 ft | 468 kts | 18° |
| 2026-04-21 22:47 | -28.74553 | -56.74280 | 40987 ft | 468 kts | 18° |
| 2026-04-21 22:48 | -28.69722 | -56.71493 | 40991 ft | 467 kts | 18° |
| 2026-04-21 22:48 | -28.63921 | -56.68150 | 40991 ft | 467 kts | 18° |
| 2026-04-21 22:49 | -28.58124 | -56.64814 | 40991 ft | 466 kts | 18° |
| 2026-04-21 22:49 | -28.52333 | -56.61485 | 40989 ft | 466 kts | 18° |
| 2026-04-21 22:50 | -28.46540 | -56.58160 | 40992 ft | 466 kts | 18° |
| 2026-04-21 22:50 | -28.40754 | -56.54843 | 40991 ft | 466 kts | 18° |
| 2026-04-21 22:51 | -28.34994 | -56.51543 | 40991 ft | 466 kts | 18° |
| 2026-04-21 22:51 | -28.29201 | -56.48230 | 40991 ft | 467 kts | 18° |
| 2026-04-21 22:52 | -28.23394 | -56.44911 | 40989 ft | 467 kts | 18° |
| 2026-04-21 22:52 | -28.17594 | -56.41603 | 40989 ft | 467 kts | 18° |
| 2026-04-21 22:53 | -28.11781 | -56.38290 | 40991 ft | 467 kts | 18° |
| 2026-04-21 22:53 | -28.05966 | -56.34979 | 40994 ft | 468 kts | 18° |
| 2026-04-21 22:54 | -28.00145 | -56.31672 | 40991 ft | 468 kts | 18° |
| 2026-04-21 22:54 | -27.94362 | -56.28387 | 40992 ft | 468 kts | 19° |
| 2026-04-21 22:55 | -27.88528 | -56.25077 | 40997 ft | 469 kts | 19° |
| 2026-04-21 22:55 | -27.82685 | -56.21768 | 40995 ft | 469 kts | 19° |
| 2026-04-21 22:56 | -27.76839 | -56.18462 | 40994 ft | 470 kts | 18° |
| 2026-04-21 22:56 | -27.71023 | -56.15175 | 41001 ft | 470 kts | 18° |
| 2026-04-21 22:57 | -27.65169 | -56.11870 | 40999 ft | 471 kts | 18° |
| 2026-04-21 22:57 | -27.59297 | -56.08562 | 40995 ft | 472 kts | 18° |
| 2026-04-21 22:58 | -27.53413 | -56.05247 | 40993 ft | 472 kts | 18° |
| 2026-04-21 22:58 | -27.47539 | -56.01943 | 40987 ft | 473 kts | 18° |
| 2026-04-21 22:59 | -27.41635 | -55.98628 | 40987 ft | 473 kts | 18° |
| 2026-04-21 22:59 | -27.35995 | -55.94788 | 40989 ft | 485 kts | 29° |
| 2026-04-21 23:00 | -27.30554 | -55.90263 | 40993 ft | 485 kts | 28° |
| 2026-04-21 23:00 | -27.25113 | -55.85779 | 41001 ft | 485 kts | 29° |
| 2026-04-21 23:01 | -27.19668 | -55.81270 | 41009 ft | 485 kts | 28° |
| 2026-04-21 23:01 | -27.14221 | -55.76782 | 41015 ft | 486 kts | 28° |
| 2026-04-21 23:02 | -27.08774 | -55.72291 | 41021 ft | 486 kts | 28° |
| 2026-04-21 23:02 | -27.03347 | -55.67826 | 41022 ft | 486 kts | 28° |
| 2026-04-21 23:03 | -26.97896 | -55.63344 | 41028 ft | 486 kts | 28° |
| 2026-04-21 23:03 | -26.92435 | -55.58863 | 41026 ft | 486 kts | 28° |
| 2026-04-21 23:04 | -26.86966 | -55.54379 | 41023 ft | 487 kts | 29° |
| 2026-04-21 23:04 | -26.81531 | -55.49924 | 41026 ft | 487 kts | 28° |
| 2026-04-21 23:05 | -26.76053 | -55.45448 | 41024 ft | 487 kts | 29° |
| 2026-04-21 23:05 | -26.70578 | -55.40969 | 41023 ft | 487 kts | 29° |
| 2026-04-21 23:06 | -26.67833 | -55.38733 | 40838 ft | 491 kts | 29° |
| 2026-04-21 23:06 | -26.65074 | -55.36484 | 40262 ft | 487 kts | 29° |
| 2026-04-21 23:06 | -26.62362 | -55.34261 | 39711 ft | 480 kts | 29° |
| 2026-04-21 23:06 | -26.59679 | -55.32075 | 39169 ft | 474 kts | 29° |
| 2026-04-21 23:07 | -26.57018 | -55.29917 | 38637 ft | 470 kts | 29° |
| 2026-04-21 23:07 | -26.54417 | -55.27804 | 38044 ft | 466 kts | 30° |
| 2026-04-21 23:07 | -26.51802 | -55.25671 | 37462 ft | 462 kts | 30° |
| 2026-04-21 23:07 | -26.49216 | -55.23567 | 36902 ft | 458 kts | 30° |
| 2026-04-21 23:08 | -26.46645 | -55.21481 | 36366 ft | 454 kts | 30° |
| 2026-04-21 23:08 | -26.44095 | -55.19413 | 35850 ft | 451 kts | 30° |
| 2026-04-21 23:08 | -26.41563 | -55.17357 | 35347 ft | 447 kts | 30° |
| 2026-04-21 23:08 | -26.39062 | -55.15327 | 34862 ft | 443 kts | 30° |
| 2026-04-21 23:09 | -26.36576 | -55.13309 | 34389 ft | 439 kts | 30° |
| 2026-04-21 23:09 | -26.34097 | -55.11345 | 33908 ft | 433 kts | 27° |
| 2026-04-21 23:09 | -26.31497 | -55.09700 | 33320 ft | 427 kts | 21° |
| 2026-04-21 23:09 | -26.28813 | -55.08281 | 32635 ft | 427 kts | 19° |
| 2026-04-21 23:10 | -26.26114 | -55.06886 | 31978 ft | 428 kts | 21° |
| 2026-04-21 23:10 | -26.23460 | -55.05377 | 31353 ft | 429 kts | 23° |
| 2026-04-21 23:10 | -26.20840 | -55.03848 | 30754 ft | 429 kts | 23° |
| 2026-04-21 23:10 | -26.18168 | -55.02360 | 30170 ft | 427 kts | 22° |
| 2026-04-21 23:11 | -26.15501 | -55.00912 | 29506 ft | 427 kts | 22° |
| 2026-04-21 23:11 | -26.12851 | -54.99438 | 28854 ft | 426 kts | 22° |
| 2026-04-21 23:11 | -26.10219 | -54.97952 | 28233 ft | 424 kts | 22° |
| 2026-04-21 23:11 | -26.07580 | -54.96479 | 27536 ft | 424 kts | 22° |
| 2026-04-21 23:12 | -26.04926 | -54.95012 | 26775 ft | 425 kts | 22° |
| 2026-04-21 23:12 | -26.02276 | -54.93543 | 26057 ft | 426 kts | 22° |
| 2026-04-21 23:12 | -25.99621 | -54.92061 | 25244 ft | 428 kts | 22° |
| 2026-04-21 23:12 | -25.96955 | -54.90579 | 24165 ft | 425 kts | 22° |
| 2026-04-21 23:13 | -25.94317 | -54.89113 | 22761 ft | 421 kts | 22° |
| 2026-04-21 23:13 | -25.91745 | -54.87686 | 21349 ft | 413 kts | 22° |
| 2026-04-21 23:13 | -25.89211 | -54.86280 | 20004 ft | 405 kts | 22° |
| 2026-04-21 23:13 | -25.86723 | -54.84900 | 18733 ft | 395 kts | 22° |
| 2026-04-21 23:14 | -25.84292 | -54.83553 | 17394 ft | 384 kts | 23° |
| 2026-04-21 23:14 | -25.81926 | -54.82244 | 16060 ft | 375 kts | 23° |
| 2026-04-21 23:14 | -25.79645 | -54.80981 | 14849 ft | 366 kts | 24° |
| 2026-04-21 23:14 | -25.77519 | -54.79795 | 13280 ft | 311 kts | 24° |
| 2026-04-21 23:15 | -25.75655 | -54.78761 | 11123 ft | 288 kts | 24° |
| 2026-04-21 23:15 | -25.73917 | -54.77811 | 9143 ft | 267 kts | 25° |
| 2026-04-21 23:15 | -25.72325 | -54.76933 | 7292 ft | 251 kts | 25° |
| 2026-04-21 23:15 | -25.70720 | -54.76047 | 5548 ft | 276 kts | 25° |
| 2026-04-21 23:16 | -25.68913 | -54.75043 | 4279 ft | 293 kts | 26° |
| 2026-04-21 23:16 | -25.67121 | -54.74053 | 3397 ft | 288 kts | 26° |
| 2026-04-21 23:16 | -25.65323 | -54.73065 | 2993 ft | 285 kts | 26° |
| 2026-04-21 23:16 | -25.63587 | -54.72108 | 2994 ft | 278 kts | 26° |
| 2026-04-21 23:17 | -25.61887 | -54.71167 | 2992 ft | 259 kts | 26° |
| 2026-04-21 23:17 | -25.60366 | -54.70325 | 2985 ft | 230 kts | 26° |
| 2026-04-21 23:17 | -25.59001 | -54.69574 | 2977 ft | 208 kts | 26° |
| 2026-04-21 23:17 | -25.57766 | -54.68895 | 2976 ft | 189 kts | 26° |
| 2026-04-21 23:18 | -25.56590 | -54.68249 | 2976 ft | 193 kts | 26° |
| 2026-04-21 23:18 | -25.55397 | -54.67589 | 2980 ft | 188 kts | 26° |
| 2026-04-21 23:18 | -25.54205 | -54.66933 | 2982 ft | 193 kts | 26° |
| 2026-04-21 23:18 | -25.52990 | -54.66265 | 2983 ft | 201 kts | 26° |
| 2026-04-21 23:19 | -25.51740 | -54.65512 | 2978 ft | 208 kts | 36° |
| 2026-04-21 23:19 | -25.50800 | -54.64303 | 2977 ft | 201 kts | 58° |
| 2026-04-21 23:19 | -25.50345 | -54.62885 | 2912 ft | 191 kts | 78° |
| 2026-04-21 23:19 | -25.50354 | -54.61441 | 2763 ft | 187 kts | 98° |
| 2026-04-21 23:20 | -25.50824 | -54.60094 | 2481 ft | 193 kts | 121° |
| 2026-04-21 23:20 | -25.51653 | -54.58940 | 2299 ft | 189 kts | 127° |
| 2026-04-21 23:20 | -25.52469 | -54.57870 | 2284 ft | 172 kts | 128° |
| 2026-04-21 23:20 | -25.53220 | -54.56919 | 2282 ft | 157 kts | 127° |
| 2026-04-21 23:21 | -25.53907 | -54.56020 | 2282 ft | 150 kts | 128° |
| 2026-04-21 23:21 | -25.54602 | -54.55152 | 2057 ft | 144 kts | 129° |
| 2026-04-21 23:21 | -25.55263 | -54.54320 | 1826 ft | 142 kts | 126° |
| 2026-04-21 23:21 | -25.55884 | -54.53506 | 1635 ft | 141 kts | 126° |
| 2026-04-21 23:22 | -25.56493 | -54.52663 | 1447 ft | 139 kts | 129° |
| 2026-04-21 23:22 | -25.57138 | -54.51868 | 1243 ft | 139 kts | 130° |
| 2026-04-21 23:22 | -25.57767 | -54.51058 | 1067 ft | 139 kts | 130° |
| 2026-04-21 23:22 | -25.58387 | -54.50265 | 873 ft | 134 kts | 130° |
| 2026-04-21 23:23 | -25.58987 | -54.49490 | 777 ft | 127 kts | 130° |
| 2026-04-21 23:23 | -25.59478 | -54.48865 | 777 ft | 80 kts | 131° |
| 2026-04-21 23:23 | -25.59643 | -54.48667 | 779 ft | 9 kts | 173° |
| 2026-04-21 23:23 | -25.59699 | -54.48710 | 779 ft | 11 kts | 224° |
| 2026-04-21 23:24 | -25.59688 | -54.48758 | 778 ft | 13 kts | 311° |
| 2026-04-21 23:24 | -25.59630 | -54.48833 | 777 ft | 14 kts | 310° |
| 2026-04-21 23:24 | -25.59584 | -54.48895 | 777 ft | 8 kts | 269° |
| 2026-04-21 23:24 | -25.59609 | -54.48931 | 776 ft | 2 kts | 222° |
| 2026-04-21 23:25 | -25.59618 | -54.48940 | 776 ft | 0 kts | 221° |